Time;durP1;ratioP1;P1;durP2;ratioP2;P2;SDS_P1;SDS_P2;PMS_P1;PMS_P2;Temp;Humidity;BMP_temperature;BMP_pressure;BME280_temperature;BME280_humidity;BME280_pressure;Samples;Min_cycle;Max_cycle;Signal;HPM_P1;HPM_P2
2023/03/10 00:02:20;;;;;;;28.07;15.27;;;;;;;-141.97;57.49;47717.06;5052778;28;20205;-87
2023/03/10 00:04:52;;;;;;;28.03;14.53;;;;;;;-141.97;57.29;47617.09;5052784;28;20233;-86
2023/03/10 00:07:18;;;;;;;26.57;14.77;;;;;;;-141.97;57.43;47599.81;5054250;28;20181;-86
2023/03/10 00:09:44;;;;;;;28.83;14.73;;;;;;;-141.97;57.58;47538.28;5060517;28;20215;-86
2023/03/10 00:12:10;;;;;;;23.07;13.37;;;;;;;-141.97;59.16;47601.72;5059953;28;20162;-86
2023/03/10 00:14:36;;;;;;;25.43;13.80;;;;;;;-141.97;59.46;47622.88;5056680;28;20158;-86
2023/03/10 00:17:01;;;;;;;23.60;13.57;;;;;;;-141.97;59.26;47622.88;5056653;28;20483;-86
2023/03/10 00:19:27;;;;;;;21.37;13.47;;;;;;;-141.97;58.56;47574.81;5056687;28;20161;-86
2023/03/10 00:21:52;;;;;;;28.43;13.63;;;;;;;-141.97;59.31;47494.09;5053921;28;20268;-86
2023/03/10 00:24:18;;;;;;;28.70;14.00;;;;;;;-141.97;60.37;47636.31;5055394;28;20265;-86
2023/03/10 00:26:46;;;;;;;30.33;14.03;;;;;;;-141.97;60.15;47626.72;5055530;28;20173;-86
2023/03/10 00:29:12;;;;;;;27.03;14.73;;;;;;;-141.97;60.57;47559.44;5053794;28;20212;-86
2023/03/10 00:31:37;;;;;;;23.37;13.90;;;;;;;-141.97;60.55;47619.03;5055947;28;20169;-86
2023/03/10 00:34:04;;;;;;;27.03;14.53;;;;;;;-141.97;60.68;47645.94;5054026;28;20673;-86
2023/03/10 00:36:30;;;;;;;25.93;14.00;;;;;;;-141.97;60.66;47590.19;5056201;28;20188;-86
2023/03/10 00:38:59;;;;;;;31.50;14.67;;;;;;;-141.97;61.14;47503.69;5055464;28;20618;-86
2023/03/10 00:41:31;;;;;;;29.23;14.43;;;;;;;-141.97;61.05;47707.44;5054781;28;20622;-86
2023/03/10 00:43:57;;;;;;;29.17;14.03;;;;;;;-141.97;61.08;47553.69;5054646;28;20180;-86
2023/03/10 00:46:24;;;;;;;24.13;14.03;;;;;;;-141.97;60.80;47597.88;5055056;28;20665;-86
2023/03/10 00:48:50;;;;;;;25.70;13.90;;;;;;;-141.97;61.56;47613.25;5055625;28;20185;-86
2023/03/10 00:51:16;;;;;;;32.17;14.07;;;;;;;-141.97;61.65;47628.63;5055506;28;20172;-86
2023/03/10 00:53:42;;;;;;;23.00;14.13;;;;;;;-141.97;61.83;47569.06;5056250;28;20161;-86
2023/03/10 00:56:12;;;;;;;25.03;13.80;;;;;;;-141.97;61.74;47619.03;5056189;28;20162;-86
2023/03/10 00:58:38;;;;;;;25.27;14.10;;;;;;;-141.97;61.85;47619.03;5055828;28;20224;-86
2023/03/10 01:01:09;;;;;;;27.37;15.00;;;;;;;-141.97;62.68;47669.00;5056377;28;20165;-86
2023/03/10 01:03:35;;;;;;;26.83;14.03;;;;;;;-141.97;62.52;47584.44;5055620;28;20169;-86
2023/03/10 01:06:00;;;;;;;23.17;13.93;;;;;;;-141.97;63.00;47709.38;5053809;28;20166;-86
2023/03/10 01:08:25;;;;;;;25.20;14.53;;;;;;;-141.97;62.90;47713.22;5053949;28;20728;-86
2023/03/10 01:10:51;;;;;;;34.60;15.40;;;;;;;-141.97;63.39;47595.97;5053763;28;20252;-86
2023/03/10 01:13:18;;;;;;;27.57;16.00;;;;;;;-141.97;63.30;47634.41;5055332;28;20181;-86
2023/03/10 01:15:46;;;;;;;27.50;15.23;;;;;;;-141.97;63.30;47607.50;5056206;28;20636;-86
2023/03/10 01:18:12;;;;;;;27.43;15.47;;;;;;;-141.97;63.76;47718.97;5053621;28;20158;-86
2023/03/10 01:20:40;;;;;;;27.00;15.80;;;;;;;-141.97;64.20;47544.06;5055169;28;20493;-86
2023/03/10 01:23:06;;;;;;;26.77;15.80;;;;;;;-141.97;64.56;47724.75;5055135;28;20154;-85
2023/03/10 01:25:31;;;;;;;29.13;15.83;;;;;;;-141.97;64.07;47592.13;5054886;28;20215;-85
2023/03/10 01:27:57;;;;;;;37.73;16.13;;;;;;;-141.97;64.61;47703.59;5055513;28;20175;-86
2023/03/10 01:30:22;;;;;;;35.47;16.07;;;;;;;-141.97;65.12;47620.94;5055461;28;20165;-86
2023/03/10 01:32:48;;;;;;;27.57;15.50;;;;;;;-141.97;64.93;47546.00;5059001;28;20232;-86
2023/03/10 01:37:48;;;;;;;25.70;15.03;;;;;;;-141.97;66.19;47546.00;5768610;22;20232;-88
2023/03/10 01:40:15;;;;;;;27.03;15.17;;;;;;;-141.97;67.07;47544.06;5069371;28;20260;-87
2023/03/10 01:42:42;;;;;;;29.63;16.07;;;;;;;-141.97;67.22;47617.09;5054312;28;20254;-86
2023/03/10 01:45:15;;;;;;;28.80;15.80;;;;;;;-141.97;67.21;47632.47;5054566;28;20175;-86
2023/03/10 01:47:42;;;;;;;32.53;15.57;;;;;;;-141.97;66.90;47486.41;5054443;28;20213;-86
2023/03/10 01:50:12;;;;;;;27.13;15.17;;;;;;;-141.97;66.86;47519.06;5054063;28;20200;-85
2023/03/10 01:52:40;;;;;;;27.47;15.70;;;;;;;-141.97;66.66;47526.75;5054176;28;20157;-85
2023/03/10 01:55:12;;;;;;;32.03;16.13;;;;;;;-141.97;66.88;47595.97;5054943;28;20170;-85
2023/03/10 01:57:47;;;;;;;28.77;15.30;;;;;;;-141.97;66.59;47517.16;5068183;28;20176;-86
2023/03/10 02:00:15;;;;;;;29.87;15.63;;;;;;;-141.97;66.88;47661.31;5100603;22;20226;-86
2023/03/10 02:02:50;;;;;;;35.50;17.80;;;;;;;-141.97;66.68;47607.50;5011244;28;20175;-86
2023/03/10 02:05:16;;;;;;;38.50;20.43;;;;;;;-141.97;67.16;47592.13;4994553;28;20257;-86
2023/03/10 02:07:42;;;;;;;36.50;19.67;;;;;;;-141.97;67.20;47699.75;4993519;28;20227;-85
2023/03/10 02:10:11;;;;;;;33.20;17.60;;;;;;;-141.97;67.26;47707.44;4994650;28;20195;-85
2023/03/10 02:12:36;;;;;;;32.70;18.07;;;;;;;-141.97;67.41;47503.69;4994855;28;20202;-86
2023/03/10 02:15:03;;;;;;;31.63;17.37;;;;;;;-141.97;66.77;47734.34;4994626;28;20168;-86
2023/03/10 02:17:28;;;;;;;32.50;17.70;;;;;;;-141.97;67.17;47526.75;4994296;28;20171;-85
2023/03/10 02:20:31;;;;;;;33.20;17.17;;;;;;;-141.97;67.23;47653.63;4993118;28;20182;-85
2023/03/10 02:22:56;;;;;;;39.03;18.07;;;;;;;-141.97;67.47;47626.72;4994357;28;20167;-86
2023/03/10 02:25:32;;;;;;;30.20;17.47;;;;;;;-141.97;67.58;47659.38;4992998;28;20179;-86
2023/03/10 02:27:58;;;;;;;34.23;17.80;;;;;;;-141.97;68.35;47446.03;4994634;28;20207;-86
2023/03/10 02:30:48;;;;;;;34.47;16.87;;;;;;;-141.97;67.94;47642.09;4994319;28;20223;-85
2023/03/10 02:33:23;;;;;;;31.07;17.03;;;;;;;-141.97;68.49;47578.66;4939331;29;20203;-84
2023/03/10 02:35:49;;;;;;;30.40;16.63;;;;;;;-141.97;68.55;47461.41;4934164;29;20275;-87
2023/03/10 02:38:15;;;;;;;32.77;16.37;;;;;;;-141.97;68.56;47517.16;4934595;29;20793;-86
2023/03/10 02:40:48;;;;;;;28.33;15.90;;;;;;;-141.97;68.95;47611.34;4933931;29;20209;-86
2023/03/10 02:43:32;;;;;;;29.57;17.37;;;;;;;-141.97;68.89;47724.75;4934639;29;20174;-86
2023/03/10 02:46:01;;;;;;;31.07;17.13;;;;;;;-141.97;69.33;47619.03;4918431;29;20209;-85
2023/03/10 02:48:37;;;;;;;26.00;16.27;;;;;;;-141.97;70.72;47718.97;4933875;29;20744;-85
2023/03/10 02:51:11;;;;;;;32.63;18.03;;;;;;;-141.97;71.37;47626.72;4933643;29;20193;-86
2023/03/10 02:53:37;;;;;;;28.80;16.83;;;;;;;-141.97;71.69;47657.47;4934122;29;20189;-86
2023/03/10 02:56:02;;;;;;;31.03;17.40;;;;;;;-141.97;71.90;47538.28;4934002;29;20174;-86
2023/03/10 02:58:30;;;;;;;33.77;17.50;;;;;;;-141.97;72.64;47628.63;4933725;29;20587;-85
2023/03/10 03:00:56;;;;;;;37.23;20.50;;;;;;;-141.97;73.48;47622.88;4933968;29;20221;-86
2023/03/10 03:03:22;;;;;;;38.90;19.87;;;;;;;-141.97;73.91;47521.00;4934180;29;20251;-86
2023/03/10 03:05:48;;;;;;;32.70;18.60;;;;;;;-141.97;74.63;47636.31;4934313;29;20184;-85
2023/03/10 03:08:15;;;;;;;99.87;45.23;;;;;;;-141.97;75.04;47547.91;4933250;29;20201;-85
2023/03/10 03:10:41;;;;;;;73.00;38.63;;;;;;;-141.97;74.69;47630.56;4978583;28;21109;-85
2023/03/10 03:13:07;;;;;;;28.70;16.33;;;;;;;-141.97;74.69;47624.78;4998100;28;20195;-85
2023/03/10 03:15:33;;;;;;;26.93;17.70;;;;;;;-141.97;75.62;47605.56;4993508;28;20195;-85
2023/03/10 03:17:59;;;;;;;27.47;15.77;;;;;;;-141.97;75.67;47526.75;4994143;28;20608;-85
2023/03/10 03:20:26;;;;;;;32.03;16.87;;;;;;;-141.97;75.81;47611.34;4993604;28;20174;-86
2023/03/10 03:22:52;;;;;;;26.13;15.80;;;;;;;-141.97;75.62;47680.53;4992113;28;20230;-87
2023/03/10 03:25:20;;;;;;;27.37;16.27;;;;;;;-141.97;75.19;47565.22;4994100;28;20179;-85
2023/03/10 03:27:46;;;;;;;28.00;16.53;;;;;;;-141.97;75.01;47592.13;4994330;28;20197;-85
2023/03/10 03:30:18;;;;;;;30.53;18.30;;;;;;;-141.97;74.31;47438.34;4993604;28;20203;-86
2023/03/10 03:32:43;;;;;;;34.13;21.30;;;;;;;-141.97;74.04;47644.00;4993190;28;20564;-86
2023/03/10 03:35:11;;;;;;;31.20;18.97;;;;;;;-141.97;73.50;47486.41;4992280;28;20241;-85
2023/03/10 03:37:37;;;;;;;33.97;17.53;;;;;;;-141.97;73.41;47549.84;4991272;28;20172;-86
2023/03/10 03:40:11;;;;;;;34.07;17.20;;;;;;;-141.97;73.21;47597.88;4994097;28;20187;-85
2023/03/10 03:42:40;;;;;;;27.00;16.13;;;;;;;-141.97;73.32;47626.72;4992472;28;20174;-87
2023/03/10 03:45:07;;;;;;;31.10;18.03;;;;;;;-141.97;72.82;47557.53;4993355;28;20172;-86
2023/03/10 03:47:33;;;;;;;33.47;16.83;;;;;;;-141.97;72.81;47736.28;4993160;28;20167;-86
2023/03/10 03:49:58;;;;;;;30.07;16.20;;;;;;;-141.97;72.33;47496.00;4991581;28;20207;-86
2023/03/10 03:52:24;;;;;;;34.27;16.37;;;;;;;-141.97;72.23;47626.72;4993470;28;20332;-87
2023/03/10 03:54:49;;;;;;;29.47;16.07;;;;;;;-141.97;71.80;47682.47;4993349;28;20177;-86
2023/03/10 03:57:15;;;;;;;27.30;16.07;;;;;;;-141.97;72.93;47705.53;4993105;28;20734;-86
2023/03/10 03:59:40;;;;;;;30.90;16.00;;;;;;;-141.97;73.14;47622.88;5000427;28;20222;-86
2023/03/10 04:02:05;;;;;;;28.20;15.93;;;;;;;-141.97;73.17;47632.47;5013222;28;20170;-87
2023/03/10 04:04:31;;;;;;;28.30;15.27;;;;;;;-141.97;72.58;47622.88;5012901;28;20522;-86
2023/03/10 04:06:56;;;;;;;28.40;16.00;;;;;;;-141.97;72.61;47626.72;4994534;28;20182;-87
2023/03/10 04:09:22;;;;;;;27.10;15.70;;;;;;;-141.97;72.58;47595.97;5012763;28;20578;-86
2023/03/10 04:11:47;;;;;;;26.90;15.33;;;;;;;-141.97;72.64;47503.69;5012726;28;20174;-86
2023/03/10 04:14:13;;;;;;;29.13;15.87;;;;;;;-141.97;72.41;47472.94;5012596;28;20232;-86
2023/03/10 04:16:38;;;;;;;27.97;16.07;;;;;;;-141.97;71.96;47605.56;5012688;28;20163;-86
2023/03/10 04:19:06;;;;;;;30.03;16.53;;;;;;;-141.97;71.97;47476.78;4994869;28;20191;-87
2023/03/10 04:21:33;;;;;;;27.50;16.57;;;;;;;-141.97;71.52;47547.91;4994949;28;20186;-86
2023/03/10 04:23:58;;;;;;;34.60;18.17;;;;;;;-141.97;71.12;47576.75;5021152;28;20180;-87
2023/03/10 04:26:24;;;;;;;30.93;17.20;;;;;;;-141.97;71.17;47553.69;5640215;22;21321;-87
2023/03/10 04:28:49;;;;;;;32.43;17.10;;;;;;;-141.97;71.17;47734.34;5411323;22;20238;-85
2023/03/10 04:31:17;;;;;;;34.00;17.73;;;;;;;-141.97;71.51;47613.25;4993559;28;20171;-85
2023/03/10 04:33:42;;;;;;;28.87;16.60;;;;;;;-141.97;71.97;47713.22;4992701;28;20164;-88
2023/03/10 04:36:08;;;;;;;28.93;16.80;;;;;;;-141.97;71.71;47561.38;4994633;28;20218;-87
2023/03/10 04:38:33;;;;;;;35.87;18.10;;;;;;;-141.97;71.72;47484.47;4993498;28;20187;-86
2023/03/10 04:41:00;;;;;;;107.30;50.47;;;;;;;-141.97;71.11;47726.66;4995117;28;20619;-87
2023/03/10 04:43:26;;;;;;;63.70;34.03;;;;;;;-141.97;71.31;47642.09;4996068;28;20171;-86
2023/03/10 04:45:51;;;;;;;58.90;30.50;;;;;;;-141.97;70.85;47665.16;4992938;28;20187;-86
2023/03/10 04:48:16;;;;;;;54.90;28.67;;;;;;;-141.97;70.98;47634.41;5008438;28;20255;-86
2023/03/10 04:50:42;;;;;;;115.57;46.07;;;;;;;-141.97;71.48;47626.72;4991324;28;20178;-85
2023/03/10 04:53:07;;;;;;;84.47;37.77;;;;;;;-141.97;72.52;47692.06;4991872;28;20251;-85
2023/03/10 04:55:33;;;;;;;75.53;34.10;;;;;;;-141.97;72.67;47676.69;4995735;28;20191;-86
2023/03/10 04:57:58;;;;;;;130.03;52.47;;;;;;;-141.97;72.71;47542.16;4996310;28;20160;-86
2023/03/10 05:00:24;;;;;;;80.47;39.70;;;;;;;-141.97;73.65;47680.53;4996248;28;20251;-86
2023/03/10 05:02:50;;;;;;;58.27;33.20;;;;;;;-141.97;73.30;47561.38;4995177;28;20166;-86
2023/03/10 05:05:16;;;;;;;57.07;27.83;;;;;;;-141.97;73.32;47642.09;4996441;28;20183;-86
2023/03/10 05:07:42;;;;;;;73.47;32.17;;;;;;;-141.97;73.69;47551.75;4996573;28;20172;-86
2023/03/10 05:10:09;;;;;;;58.27;28.17;;;;;;;-141.97;73.52;47738.19;4995345;28;20192;-86
2023/03/10 05:12:36;;;;;;;46.13;24.57;;;;;;;-141.97;73.56;47753.56;4996791;28;20175;-87
2023/03/10 05:15:02;;;;;;;41.60;24.23;;;;;;;-141.97;73.61;47647.84;4997099;28;20155;-87
2023/03/10 05:17:28;;;;;;;45.33;24.87;;;;;;;-141.97;73.01;47580.59;4997430;28;20250;-87
2023/03/10 05:19:53;;;;;;;55.60;27.53;;;;;;;-141.97;73.74;47538.28;4979859;28;20235;-87
2023/03/10 05:22:19;;;;;;;44.67;22.57;;;;;;;-141.97;74.15;47663.22;4996291;28;20266;-86
2023/03/10 05:24:46;;;;;;;40.27;19.77;;;;;;;-141.97;73.38;47559.44;4995881;28;20172;-87
2023/03/10 05:27:13;;;;;;;39.60;21.63;;;;;;;-141.97;73.33;47688.22;5006947;28;20177;-86
2023/03/10 05:29:39;;;;;;;35.47;18.33;;;;;;;-141.97;73.30;47699.75;5015219;28;20232;-86
2023/03/10 05:32:06;;;;;;;36.67;20.00;;;;;;;-141.97;74.31;47492.16;5007039;28;20266;-88
2023/03/10 05:34:31;;;;;;;35.53;20.27;;;;;;;-141.97;75.13;47553.69;4998205;28;20251;-88
2023/03/10 05:36:57;;;;;;;44.43;23.37;;;;;;;-141.97;76.19;47626.72;4996851;28;20210;-87
2023/03/10 05:39:22;;;;;;;45.87;23.03;;;;;;;-141.97;76.22;47699.75;4995040;28;20537;-87
2023/03/10 05:41:48;;;;;;;78.27;30.73;;;;;;;-141.97;75.43;47490.25;4996147;28;20176;-87
2023/03/10 05:44:13;;;;;;;59.70;33.37;;;;;;;-141.97;74.09;47697.84;4994235;28;20173;-87
2023/03/10 05:46:39;;;;;;;56.60;32.87;;;;;;;-141.97;73.20;47665.16;4995941;28;20596;-87
2023/03/10 05:49:04;;;;;;;46.57;26.90;;;;;;;-141.97;72.69;47707.44;4996288;28;20198;-87
2023/03/10 05:51:30;;;;;;;90.60;48.80;;;;;;;-141.97;72.42;47469.09;4994667;28;20202;-88
2023/03/10 05:53:55;;;;;;;317.13;171.47;;;;;;;-141.97;71.16;47676.69;4996274;28;20632;-87
2023/03/10 05:56:21;;;;;;;69.90;36.57;;;;;;;-141.97;70.49;47703.59;4994627;28;20177;-87
2023/03/10 05:58:47;;;;;;;68.40;34.90;;;;;;;-141.97;69.92;47632.47;4995862;28;20220;-87
2023/03/10 06:01:13;;;;;;;63.27;36.00;;;;;;;-141.97;69.47;47736.28;4995766;28;20209;-87
2023/03/10 06:03:38;;;;;;;56.07;32.13;;;;;;;-141.97;68.82;47503.69;4996039;28;20194;-88
2023/03/10 06:06:08;;;;;;;50.87;28.80;;;;;;;-141.97;68.33;47699.75;4994112;28;20199;-86
2023/03/10 06:08:34;;;;;;;121.90;60.93;;;;;;;-141.97;68.25;47728.59;4995165;28;20199;-87
2023/03/10 06:11:00;;;;;;;112.10;59.67;;;;;;;-141.97;68.02;47695.91;4996420;28;20171;-86
2023/03/10 06:13:25;;;;;;;107.27;54.30;;;;;;;-141.97;67.50;47607.50;5002561;28;20253;-86
2023/03/10 06:15:54;;;;;;;112.03;57.70;;;;;;;-141.97;66.60;47572.91;5009173;28;20225;-87
2023/03/10 06:18:19;;;;;;;206.93;100.57;;;;;;;-141.97;66.10;47588.28;5014209;28;20186;-87
2023/03/10 06:20:48;;;;;;;238.80;124.23;;;;;;;-141.97;65.39;47711.28;5014302;28;20178;-87
2023/03/10 06:23:15;;;;;;;379.83;212.13;;;;;;;-141.97;64.98;47615.19;4990902;28;20257;-87
2023/03/10 06:25:41;;;;;;;326.83;173.07;;;;;;;-141.97;63.76;47557.53;4995558;28;20183;-87
2023/03/10 06:28:06;;;;;;;304.37;162.40;;;;;;;-141.97;63.47;47499.84;4994973;28;20186;-87
2023/03/10 06:30:32;;;;;;;288.97;154.50;;;;;;;-141.97;63.75;47720.91;4996641;28;20295;-88
2023/03/10 06:32:59;;;;;;;277.90;143.87;;;;;;;-141.97;63.22;47620.94;4994176;28;20179;-87
2023/03/10 06:35:25;;;;;;;294.60;152.93;;;;;;;-141.97;63.53;47659.38;4994241;28;20187;-86
2023/03/10 06:37:51;;;;;;;229.23;122.27;;;;;;;-141.97;62.78;47753.56;4994206;28;20176;-87
2023/03/10 06:40:16;;;;;;;219.37;116.67;;;;;;;-141.97;61.15;47676.69;4994927;28;20155;-86
2023/03/10 06:42:43;;;;;;;169.20;89.30;;;;;;;-141.97;61.13;47584.44;4993239;28;20668;-85
2023/03/10 06:45:12;;;;;;;137.80;69.60;;;;;;;-141.97;61.05;47572.91;4994039;28;20172;-85
2023/03/10 06:47:41;;;;;;;117.23;56.63;;;;;;;-141.97;60.32;47547.91;4995398;28;20206;-87
2023/03/10 06:50:07;;;;;;;85.57;46.70;;;;;;;-141.97;59.44;47546.00;4993214;28;20664;-87
2023/03/10 06:52:33;;;;;;;91.90;49.40;;;;;;;-141.97;58.42;47542.16;4993381;28;20206;-86
2023/03/10 06:55:02;;;;;;;85.60;44.20;;;;;;;-141.97;57.73;47615.19;4992923;28;20187;-86
2023/03/10 06:57:28;;;;;;;81.47;45.30;;;;;;;-141.97;57.02;47730.50;4996322;28;20195;-86
2023/03/10 06:59:54;;;;;;;77.07;43.23;;;;;;;-141.97;55.91;47742.03;4998380;28;20235;-86
2023/03/10 07:02:19;;;;;;;67.10;40.40;;;;;;;-141.97;54.95;47515.22;5015177;28;20167;-88
2023/03/10 07:04:45;;;;;;;69.57;38.50;;;;;;;-141.97;54.22;47559.44;5016907;28;20175;-88
2023/03/10 07:07:12;;;;;;;69.33;37.63;;;;;;;-141.97;54.36;47540.22;5010839;28;20203;-86
2023/03/10 07:09:38;;;;;;;79.23;36.20;;;;;;;-141.97;53.25;47588.28;4993828;28;20187;-87
2023/03/10 07:12:04;;;;;;;67.70;33.77;;;;;;;-141.97;51.92;47496.00;4993014;28;20168;-86
2023/03/10 07:14:29;;;;;;;67.83;33.07;;;;;;;-141.97;52.58;47580.59;4992810;28;20171;-87
2023/03/10 07:16:55;;;;;;;68.20;32.23;;;;;;;-141.97;52.40;47476.78;5011351;28;20175;-86
2023/03/10 07:19:21;;;;;;;62.77;27.37;;;;;;;-141.97;51.36;47555.59;5027531;28;20174;-86
2023/03/10 07:21:46;;;;;;;69.70;27.43;;;;;;;-141.97;50.85;47703.59;5012060;28;20659;-87
2023/03/10 07:24:11;;;;;;;51.10;24.87;;;;;;;-141.97;49.59;47620.94;4994267;28;20210;-87
2023/03/10 07:26:37;;;;;;;66.83;28.93;;;;;;;-141.97;49.37;47690.16;4991797;28;20166;-87
2023/03/10 07:29:03;;;;;;;51.70;22.97;;;;;;;-141.97;48.05;47707.44;4993509;28;20285;-87
2023/03/10 07:31:29;;;;;;;87.80;39.60;;;;;;;-141.97;48.27;47599.81;4991728;28;20179;-86
2023/03/10 07:33:54;;;;;;;78.83;39.40;;;;;;;-141.97;48.88;47619.03;4991594;28;20607;-86
2023/03/10 07:36:21;;;;;;;38.33;22.30;;;;;;;-141.97;48.28;47544.06;4993651;28;20167;-87
2023/03/10 07:38:48;;;;;;;37.27;18.43;;;;;;;-141.97;48.14;47455.66;5009335;28;20193;-88
2023/03/10 07:41:17;;;;;;;39.30;19.50;;;;;;;-141.97;48.62;47772.78;4993113;28;20168;-88
2023/03/10 07:43:42;;;;;;;35.00;19.23;;;;;;;-141.97;49.12;47578.66;4993237;28;20222;-86
2023/03/10 07:46:10;;;;;;;34.70;18.33;;;;;;;-141.97;48.96;47576.75;4993606;28;20168;-85
2023/03/10 07:48:36;;;;;;;33.53;19.30;;;;;;;-141.97;49.26;47553.69;4999976;28;20213;-86
2023/03/10 07:51:02;;;;;;;37.10;20.50;;;;;;;-141.97;48.55;47690.16;5012524;28;20170;-87
2023/03/10 07:53:29;;;;;;;40.20;21.70;;;;;;;-141.97;48.00;47365.31;4997339;28;20235;-86
2023/03/10 07:56:20;;;;;;;36.97;21.53;;;;;;;-141.97;48.21;47599.81;4994941;28;20183;-85
2023/03/10 07:58:46;;;;;;;36.67;20.57;;;;;;;-141.97;47.61;47599.81;4956533;29;20176;-87
2023/03/10 08:01:17;;;;;;;38.80;20.07;;;;;;;-141.97;47.66;47561.38;4952580;29;20283;-85
2023/03/10 08:03:43;;;;;;;31.20;18.00;;;;;;;-141.97;47.44;47497.94;4935943;29;20232;-87
2023/03/10 08:06:15;;;;;;;37.23;19.90;;;;;;;-141.97;48.73;47605.56;4952462;29;20168;-87
2023/03/10 08:08:41;;;;;;;34.60;20.70;;;;;;;-141.97;48.76;47709.38;4952297;29;20281;-88
2023/03/10 08:11:09;;;;;;;35.73;20.57;;;;;;;-141.97;48.73;47576.75;4952224;29;20255;-88
2023/03/10 08:13:35;;;;;;;34.17;18.73;;;;;;;-141.97;49.02;47519.06;4936395;29;20184;-88
2023/03/10 08:16:01;;;;;;;32.37;18.47;;;;;;;-141.97;48.90;47594.03;4952477;28;20188;-87
2023/03/10 08:18:28;;;;;;;30.97;18.37;;;;;;;-141.97;49.33;47605.56;4952245;29;20172;-86
2023/03/10 08:20:54;;;;;;;29.77;18.13;;;;;;;-141.97;49.21;47713.22;4952175;28;20173;-88
2023/03/10 08:23:20;;;;;;;31.37;17.73;;;;;;;-141.97;48.99;47592.13;4936173;29;20344;-89
2023/03/10 08:25:45;;;;;;;27.00;15.87;;;;;;;-141.97;48.90;47515.22;4952186;29;20255;-87
2023/03/10 08:28:11;;;;;;;28.80;16.73;;;;;;;-141.97;49.15;47488.31;4953687;28;20196;-87
2023/03/10 08:30:38;;;;;;;23.43;14.77;;;;;;;-141.97;48.60;47428.75;4956304;28;20788;-87
2023/03/10 08:33:06;;;;;;;27.50;14.73;;;;;;;-141.97;47.57;47494.09;4955692;28;20255;-85
2023/03/10 08:35:31;;;;;;;25.53;14.63;;;;;;;-141.97;46.95;47576.75;4976296;28;20253;-85
2023/03/10 08:37:57;;;;;;;35.57;17.67;;;;;;;-141.97;46.65;47465.25;4997430;28;20167;-86
2023/03/10 08:40:23;;;;;;;31.83;17.97;;;;;;;-141.97;47.36;47611.34;4995112;28;20639;-88
2023/03/10 08:42:51;;;;;;;27.87;17.43;;;;;;;-141.97;47.49;47588.28;4996087;28;20203;-89
2023/03/10 08:45:17;;;;;;;26.60;14.13;;;;;;;-141.97;46.47;47576.75;4996058;28;20520;-88
2023/03/10 08:47:43;;;;;;;24.43;14.50;;;;;;;-141.97;46.32;47530.59;4997434;28;20164;-89
2023/03/10 08:50:10;;;;;;;26.20;15.17;;;;;;;-141.97;46.01;47484.47;4997166;28;20254;-89
2023/03/10 08:52:35;;;;;;;23.43;14.90;;;;;;;-141.97;45.98;47684.38;4996478;28;20653;-88
2023/03/10 08:55:01;;;;;;;21.33;13.77;;;;;;;-141.97;46.65;47526.75;4995495;28;20274;-89
2023/03/10 08:57:26;;;;;;;20.33;11.90;;;;;;;-141.97;45.78;47515.22;4996186;28;20164;-88
2023/03/10 08:59:51;;;;;;;17.83;11.30;;;;;;;-141.97;44.51;47538.28;4995965;28;20170;-89
2023/03/10 09:02:19;;;;;;;15.30;10.17;;;;;;;-141.97;44.93;47620.94;4995804;28;20163;-86
2023/03/10 09:04:44;;;;;;;19.17;10.10;;;;;;;-141.97;44.57;47430.66;4984777;28;20231;-87
2023/03/10 09:07:10;;;;;;;14.53;9.73;;;;;;;-141.97;43.91;47536.38;4993771;28;20177;-88
2023/03/10 09:09:35;;;;;;;16.83;9.43;;;;;;;-141.97;43.55;47515.22;5010447;28;20560;-88
2023/03/10 09:12:02;;;;;;;15.03;9.67;;;;;;;-141.97;43.00;47467.19;4994996;28;20180;-88
2023/03/10 09:14:28;;;;;;;15.67;9.10;;;;;;;-141.97;42.25;47565.22;4998959;28;20218;-88
2023/03/10 09:16:53;;;;;;;16.50;9.27;;;;;;;-141.97;42.84;47355.72;5016088;28;20164;-89
2023/03/10 09:19:19;;;;;;;14.27;8.40;;;;;;;-141.97;41.99;47361.47;5007131;28;20200;-90
2023/03/10 09:21:44;;;;;;;15.97;8.67;;;;;;;-141.97;41.38;47434.50;5015112;28;20174;-90
2023/03/10 09:24:10;;;;;;;13.43;8.43;;;;;;;-141.97;41.73;47690.16;5000533;28;20167;-90
2023/03/10 09:26:35;;;;;;;17.33;10.20;;;;;;;-141.97;41.81;47734.34;4994932;28;20178;-89
2023/03/10 09:29:01;;;;;;;12.83;8.83;;;;;;;-141.97;42.48;47461.41;4997076;28;20235;-89
2023/03/10 09:31:38;;;;;;;13.93;8.73;;;;;;;-141.97;42.69;47736.28;4995220;28;20198;-89
2023/03/10 09:34:04;;;;;;;16.47;8.77;;;;;;;-141.97;42.80;47580.59;4996261;28;20166;-89
2023/03/10 09:36:31;;;;;;;11.73;8.33;;;;;;;-141.97;42.63;47476.78;4996159;28;20615;-91
2023/03/10 09:38:57;;;;;;;15.10;8.90;;;;;;;-141.97;41.98;47647.84;4996859;28;20231;-89
2023/03/10 09:41:35;;;;;;;14.60;8.30;;;;;;;-141.97;41.33;47559.44;4996188;28;20167;-90
2023/03/10 09:44:22;;;;;;;13.50;8.10;;;;;;;-141.97;40.39;47569.06;4995616;28;20188;-89
2023/03/10 09:47:20;;;;;;;12.70;7.97;;;;;;;-141.97;40.81;47590.19;4994713;28;20209;-89
2023/03/10 09:50:07;;;;;;;17.10;7.73;;;;;;;-141.97;41.80;47580.59;4995466;28;20199;-90
2023/03/10 09:52:55;;;;;;;15.73;8.10;;;;;;;-141.97;41.94;47478.72;4994864;28;20203;-89
2023/03/10 09:55:24;;;;;;;12.03;7.57;;;;;;;-141.97;41.38;47478.72;4994682;28;20179;-89
2023/03/10 09:57:52;;;;;;;13.40;7.47;;;;;;;-141.97;41.65;47663.22;4995721;28;20163;-89
2023/03/10 10:00:24;;;;;;;12.40;7.73;;;;;;;-141.97;40.95;47655.53;4995880;28;20163;-90
2023/03/10 10:02:58;;;;;;;14.93;7.73;;;;;;;-141.97;40.67;47515.22;4995614;28;20168;-87
2023/03/10 10:05:30;;;;;;;13.37;7.63;;;;;;;-141.97;40.90;47690.16;4995711;28;20171;-89
2023/03/10 10:07:58;;;;;;;14.70;7.60;;;;;;;-141.97;41.17;47659.38;4996102;28;20194;-88
2023/03/10 10:10:25;;;;;;;10.93;7.17;;;;;;;-141.97;41.28;47582.50;4995160;28;20226;-88
2023/03/10 10:12:53;;;;;;;12.30;7.90;;;;;;;-141.97;41.17;47592.13;4992812;28;20237;-88
2023/03/10 10:15:22;;;;;;;10.07;6.93;;;;;;;-141.97;41.07;47463.34;5001414;28;20180;-88
2023/03/10 10:18:13;;;;;;;11.93;7.43;;;;;;;-141.97;40.49;47570.97;5013324;28;20174;-89
2023/03/10 10:20:48;;;;;;;14.83;7.30;;;;;;;-141.97;40.15;47478.72;5006144;28;20245;-90
2023/03/10 10:23:19;;;;;;;10.93;6.70;;;;;;;-141.97;40.37;47546.00;5008621;28;20183;-90
2023/03/10 10:25:45;;;;;;;10.97;6.97;;;;;;;-141.97;39.87;47718.97;4994340;28;20171;-89
2023/03/10 10:28:27;;;;;;;10.13;6.83;;;;;;;-141.97;39.86;47536.38;4995107;28;20226;-90
2023/03/10 10:31:09;;;;;;;8.57;6.50;;;;;;;-141.97;39.61;47497.94;4995476;28;20183;-86
2023/03/10 10:33:52;;;;;;;8.67;6.10;;;;;;;-141.97;40.29;47576.75;4994699;28;20655;-86
2023/03/10 10:36:18;;;;;;;9.30;6.40;;;;;;;-141.97;41.17;47422.97;4993818;28;20163;-86
2023/03/10 10:38:49;;;;;;;9.10;6.30;;;;;;;-141.97;40.78;47563.28;4994913;28;20226;-86
2023/03/10 10:41:18;;;;;;;7.63;6.10;;;;;;;-141.97;40.40;47567.13;4993503;28;20167;-89
2023/03/10 10:43:44;;;;;;;9.03;5.83;;;;;;;-141.97;39.56;47388.38;4994955;28;20225;-85
2023/03/10 10:46:12;;;;;;;11.83;7.17;;;;;;;-141.97;39.27;47488.31;4998115;28;20663;-86
2023/03/10 10:48:41;;;;;;;9.73;6.47;;;;;;;-141.97;39.47;47538.28;5016295;28;20233;-85
2023/03/10 10:51:25;;;;;;;10.07;6.27;;;;;;;-141.97;39.56;47563.28;5012029;28;20261;-84
2023/03/10 10:53:51;;;;;;;9.83;5.80;;;;;;;-141.97;39.10;47542.16;5007249;28;20175;-86
2023/03/10 10:56:18;;;;;;;10.97;5.53;;;;;;;-141.97;38.36;47544.06;4993797;28;20546;-86
2023/03/10 10:58:59;;;;;;;7.53;5.90;;;;;;;-141.97;38.26;47544.06;4994319;28;20160;-86
2023/03/10 11:01:25;;;;;;;5.87;5.03;;;;;;;-141.97;38.93;47663.22;4994120;28;20258;-86
2023/03/10 11:04:03;;;;;;;7.63;5.20;;;;;;;-141.97;38.70;47572.91;4993395;28;20222;-85
2023/03/10 11:06:36;;;;;;;7.83;4.87;;;;;;;-141.97;39.24;47542.16;4995613;28;20654;-87
2023/03/10 11:09:07;;;;;;;9.30;5.27;;;;;;;-141.97;39.62;47522.91;4996486;28;20191;-86